sensor_id;sensor_type;location;lat;lon;timestamp;pressure;altitude;pressure_sealevel;temperature;humidity
67842;BME280;54642;59.126;37.876;2022-07-06T00:01:44;99705.16;;;20.72;76.30
67842;BME280;54642;59.126;37.876;2022-07-06T00:04:09;99734.72;;;20.94;76.21
67842;BME280;54642;59.126;37.876;2022-07-06T00:06:35;99743.19;;;21.00;76.29
67842;BME280;54642;59.126;37.876;2022-07-06T00:09:02;99737.59;;;21.06;76.15
67842;BME280;54642;59.126;37.876;2022-07-06T00:11:28;99700.16;;;20.83;76.01
67842;BME280;54642;59.126;37.876;2022-07-06T00:13:55;99731.13;;;20.95;76.23
67842;BME280;54642;59.126;37.876;2022-07-06T00:16:22;99742.25;;;21.01;76.17
67842;BME280;54642;59.126;37.876;2022-07-06T00:18:49;99663.97;;;20.53;75.96
67842;BME280;54642;59.126;37.876;2022-07-06T00:21:15;99706.59;;;20.78;76.00
67842;BME280;54642;59.126;37.876;2022-07-06T00:23:41;99712.97;;;20.73;76.01
67842;BME280;54642;59.126;37.876;2022-07-06T00:26:07;99731.53;;;20.88;75.94
67842;BME280;54642;59.126;37.876;2022-07-06T00:28:33;99734.84;;;20.91;75.99
67842;BME280;54642;59.126;37.876;2022-07-06T00:30:59;99717.84;;;20.81;76.34
67842;BME280;54642;59.126;37.876;2022-07-06T00:33:25;99725.66;;;20.83;76.07
67842;BME280;54642;59.126;37.876;2022-07-06T00:35:51;99742.31;;;20.83;76.00
67842;BME280;54642;59.126;37.876;2022-07-06T00:38:17;99624.72;;;19.98;76.02
67842;BME280;54642;59.126;37.876;2022-07-06T00:40:43;99746.66;;;20.67;76.01
67842;BME280;54642;59.126;37.876;2022-07-06T00:43:08;99698.22;;;20.36;76.18
67842;BME280;54642;59.126;37.876;2022-07-06T00:45:34;99707.97;;;20.34;76.58
67842;BME280;54642;59.126;37.876;2022-07-06T00:48:00;99752.53;;;20.54;76.53
67842;BME280;54642;59.126;37.876;2022-07-06T00:50:28;99766.31;;;20.60;76.78
67842;BME280;54642;59.126;37.876;2022-07-06T00:53:02;99714.00;;;20.36;76.57
67842;BME280;54642;59.126;37.876;2022-07-06T00:55:30;99721.81;;;20.37;76.69
67842;BME280;54642;59.126;37.876;2022-07-06T00:57:57;99707.97;;;20.34;76.70
67842;BME280;54642;59.126;37.876;2022-07-06T01:00:25;99759.97;;;20.64;76.91
67842;BME280;54642;59.126;37.876;2022-07-06T01:02:52;99749.13;;;20.52;76.78
67842;BME280;54642;59.126;37.876;2022-07-06T01:05:19;99746.72;;;20.48;77.02
67842;BME280;54642;59.126;37.876;2022-07-06T01:07:47;99775.78;;;20.64;77.20
67842;BME280;54642;59.126;37.876;2022-07-06T01:10:15;99730.63;;;20.36;77.32
67842;BME280;54642;59.126;37.876;2022-07-06T01:12:42;99740.94;;;20.41;77.35
67842;BME280;54642;59.126;37.876;2022-07-06T01:15:14;99742.63;;;20.42;76.97
67842;BME280;54642;59.126;37.876;2022-07-06T01:17:42;99776.28;;;20.53;77.34
67842;BME280;54642;59.126;37.876;2022-07-06T01:20:19;99789.31;;;20.56;77.34
67842;BME280;54642;59.126;37.876;2022-07-06T01:22:48;99741.84;;;20.23;77.72
67842;BME280;54642;59.126;37.876;2022-07-06T01:25:14;99743.41;;;20.27;77.19
67842;BME280;54642;59.126;37.876;2022-07-06T01:27:42;99789.72;;;20.48;77.45
67842;BME280;54642;59.126;37.876;2022-07-06T01:30:10;99782.72;;;20.47;77.61
67842;BME280;54642;59.126;37.876;2022-07-06T01:32:37;99790.47;;;20.50;77.74
67842;BME280;54642;59.126;37.876;2022-07-06T01:35:08;99757.28;;;20.30;77.85
67842;BME280;54642;59.126;37.876;2022-07-06T01:37:37;99784.72;;;20.42;77.68
67842;BME280;54642;59.126;37.876;2022-07-06T01:40:05;99802.09;;;20.46;77.55
67842;BME280;54642;59.126;37.876;2022-07-06T01:42:32;99786.44;;;20.43;77.93
67842;BME280;54642;59.126;37.876;2022-07-06T01:45:01;99759.19;;;20.27;77.53
67842;BME280;54642;59.126;37.876;2022-07-06T01:47:27;99789.09;;;20.43;78.14
67842;BME280;54642;59.126;37.876;2022-07-06T01:49:54;99786.44;;;20.43;77.97
67842;BME280;54642;59.126;37.876;2022-07-06T01:52:23;99774.81;;;20.30;77.88
67842;BME280;54642;59.126;37.876;2022-07-06T01:54:49;99791.72;;;20.43;78.14
67842;BME280;54642;59.126;37.876;2022-07-06T01:57:14;99776.53;;;20.31;77.72
67842;BME280;54642;59.126;37.876;2022-07-06T01:59:44;99740.91;;;20.06;77.97
67842;BME280;54642;59.126;37.876;2022-07-06T02:02:12;99752.06;;;20.11;78.12
67842;BME280;54642;59.126;37.876;2022-07-06T02:04:39;99792.94;;;20.36;77.90
67842;BME280;54642;59.126;37.876;2022-07-06T02:07:06;99807.50;;;20.43;78.04
67842;BME280;54642;59.126;37.876;2022-07-06T02:09:32;99759.81;;;20.14;77.97
67842;BME280;54642;59.126;37.876;2022-07-06T02:12:00;99792.09;;;20.35;78.25
67842;BME280;54642;59.126;37.876;2022-07-06T02:14:26;99801.69;;;20.36;78.05
67842;BME280;54642;59.126;37.876;2022-07-06T02:16:53;99814.63;;;20.41;78.15
67842;BME280;54642;59.126;37.876;2022-07-06T02:19:19;99769.88;;;20.24;78.02
67842;BME280;54642;59.126;37.876;2022-07-06T02:21:45;99764.75;;;20.21;78.14
67842;BME280;54642;59.126;37.876;2022-07-06T02:24:11;99801.78;;;20.52;77.71
67842;BME280;54642;59.126;37.876;2022-07-06T02:27:03;99812.00;;;20.59;77.56
67842;BME280;54642;59.126;37.876;2022-07-06T02:29:29;99812.78;;;20.61;77.36
67842;BME280;54642;59.126;37.876;2022-07-06T02:31:55;99780.50;;;20.40;77.79
67842;BME280;54642;59.126;37.876;2022-07-06T02:34:21;99801.78;;;20.52;77.93
67842;BME280;54642;59.126;37.876;2022-07-06T02:36:50;99818.13;;;20.59;77.49
67842;BME280;54642;59.126;37.876;2022-07-06T02:39:19;99822.41;;;20.62;77.40
67842;BME280;54642;59.126;37.876;2022-07-06T02:41:45;99795.88;;;20.47;77.49
67842;BME280;54642;59.126;37.876;2022-07-06T02:44:12;99829.94;;;20.69;77.44
67842;BME280;54642;59.126;37.876;2022-07-06T02:46:39;99797.47;;;20.51;77.48
67842;BME280;54642;59.126;37.876;2022-07-06T02:49:05;99790.97;;;20.59;77.17
67842;BME280;54642;59.126;37.876;2022-07-06T02:51:31;99777.00;;;20.56;77.40
67842;BME280;54642;59.126;37.876;2022-07-06T02:53:56;99820.25;;;20.87;77.19
67842;BME280;54642;59.126;37.876;2022-07-06T02:56:22;99812.16;;;20.90;76.79
67842;BME280;54642;59.126;37.876;2022-07-06T02:58:49;99825.81;;;20.99;77.00
67842;BME280;54642;59.126;37.876;2022-07-06T03:01:14;99792.03;;;20.89;76.66
67842;BME280;54642;59.126;37.876;2022-07-06T03:03:41;99803.00;;;20.98;76.92
67842;BME280;54642;59.126;37.876;2022-07-06T03:06:07;99830.09;;;21.17;76.14
67842;BME280;54642;59.126;37.876;2022-07-06T03:08:33;99803.63;;;21.03;76.24
67842;BME280;54642;59.126;37.876;2022-07-06T03:11:00;99779.47;;;20.94;75.87
67842;BME280;54642;59.126;37.876;2022-07-06T03:13:27;99818.56;;;21.20;75.89
67842;BME280;54642;59.126;37.876;2022-07-06T03:15:54;99780.25;;;20.97;75.99
67842;BME280;54642;59.126;37.876;2022-07-06T03:18:20;99827.09;;;21.25;76.18
67842;BME280;54642;59.126;37.876;2022-07-06T03:20:47;99834.66;;;21.31;75.98
67842;BME280;54642;59.126;37.876;2022-07-06T03:23:15;99823.06;;;21.33;75.33
67842;BME280;54642;59.126;37.876;2022-07-06T03:25:41;99822.31;;;21.31;75.78
67842;BME280;54642;59.126;37.876;2022-07-06T03:28:07;99832.34;;;21.41;76.21
67842;BME280;54642;59.126;37.876;2022-07-06T03:30:33;99793.09;;;21.36;75.98
67842;BME280;54642;59.126;37.876;2022-07-06T03:33:00;99825.63;;;21.68;75.24
67842;BME280;54642;59.126;37.876;2022-07-06T03:35:51;99828.97;;;21.72;74.85
67842;BME280;54642;59.126;37.876;2022-07-06T03:41:11;99834.84;;;21.77;74.35
67842;BME280;54642;59.126;37.876;2022-07-06T03:43:37;99830.47;;;21.76;73.94
67842;BME280;54642;59.126;37.876;2022-07-06T03:46:03;99807.94;;;21.70;73.95
67842;BME280;54642;59.126;37.876;2022-07-06T03:48:30;99786.00;;;21.54;73.91
67842;BME280;54642;59.126;37.876;2022-07-06T03:50:56;99837.88;;;21.85;74.12
67842;BME280;54642;59.126;37.876;2022-07-06T03:53:22;99844.72;;;21.89;73.51
67842;BME280;54642;59.126;37.876;2022-07-06T03:55:51;99838.31;;;21.78;73.22
67842;BME280;54642;59.126;37.876;2022-07-06T03:58:36;99843.34;;;21.82;73.34
67842;BME280;54642;59.126;37.876;2022-07-06T04:01:02;99847.19;;;21.77;73.24
67842;BME280;54642;59.126;37.876;2022-07-06T04:03:28;99738.94;;;20.97;72.36
67842;BME280;54642;59.126;37.876;2022-07-06T04:05:54;99818.84;;;21.64;72.98
67842;BME280;54642;59.126;37.876;2022-07-06T04:08:20;99721.72;;;21.07;73.13
67842;BME280;54642;59.126;37.876;2022-07-06T04:10:52;99841.72;;;21.80;72.96
67842;BME280;54642;59.126;37.876;2022-07-06T04:13:17;99841.56;;;21.83;73.13
67842;BME280;54642;59.126;37.876;2022-07-06T04:15:43;99815.25;;;21.65;73.59
67842;BME280;54642;59.126;37.876;2022-07-06T04:18:10;99759.50;;;21.40;73.09
67842;BME280;54642;59.126;37.876;2022-07-06T04:20:49;99780.47;;;21.59;72.70
67842;BME280;54642;59.126;37.876;2022-07-06T04:23:15;99706.34;;;21.16;72.50
67842;BME280;54642;59.126;37.876;2022-07-06T04:25:41;99822.06;;;22.01;72.57
67842;BME280;54642;59.126;37.876;2022-07-06T04:28:07;99829.03;;;22.02;72.53
67842;BME280;54642;59.126;37.876;2022-07-06T04:30:35;99827.41;;;22.16;72.74
67842;BME280;54642;59.126;37.876;2022-07-06T04:33:02;99824.97;;;22.13;72.04
67842;BME280;54642;59.126;37.876;2022-07-06T04:35:31;99830.72;;;22.03;72.12
67842;BME280;54642;59.126;37.876;2022-07-06T04:37:57;99789.47;;;21.70;72.50
67842;BME280;54642;59.126;37.876;2022-07-06T04:40:24;99834.66;;;21.96;72.77
67842;BME280;54642;59.126;37.876;2022-07-06T04:42:55;99845.63;;;22.04;72.67
67842;BME280;54642;59.126;37.876;2022-07-06T04:45:21;99839.75;;;21.99;72.40
67842;BME280;54642;59.126;37.876;2022-07-06T04:47:47;99834.66;;;21.96;72.48
67842;BME280;54642;59.126;37.876;2022-07-06T04:50:14;99806.34;;;21.84;72.19
67842;BME280;54642;59.126;37.876;2022-07-06T04:52:42;99789.91;;;21.79;72.07
67842;BME280;54642;59.126;37.876;2022-07-06T04:55:09;99832.44;;;22.04;72.38
67842;BME280;54642;59.126;37.876;2022-07-06T04:57:36;99828.38;;;21.99;72.54
67842;BME280;54642;59.126;37.876;2022-07-06T05:02:30;99808.53;;;21.76;72.61
67842;BME280;54642;59.126;37.876;2022-07-06T05:04:56;99819.19;;;21.90;72.97
67842;BME280;54642;59.126;37.876;2022-07-06T05:07:22;99796.72;;;21.83;72.59
67842;BME280;54642;59.126;37.876;2022-07-06T05:09:48;99830.25;;;21.97;73.07
67842;BME280;54642;59.126;37.876;2022-07-06T05:12:14;99778.84;;;21.72;73.02
67842;BME280;54642;59.126;37.876;2022-07-06T05:14:40;99840.69;;;22.30;72.45
67842;BME280;54642;59.126;37.876;2022-07-06T05:17:07;99843.00;;;22.36;72.19
67842;BME280;54642;59.126;37.876;2022-07-06T05:19:33;99848.19;;;22.38;72.44
67842;BME280;54642;59.126;37.876;2022-07-06T05:22:00;99841.50;;;22.32;72.12
67842;BME280;54642;59.126;37.876;2022-07-06T05:24:25;99842.81;;;22.23;72.65
67842;BME280;54642;59.126;37.876;2022-07-06T05:26:51;99836.88;;;22.20;73.02
67842;BME280;54642;59.126;37.876;2022-07-06T05:29:18;99839.75;;;22.15;72.65
67842;BME280;54642;59.126;37.876;2022-07-06T05:31:44;99795.44;;;21.90;73.23
67842;BME280;54642;59.126;37.876;2022-07-06T05:34:11;99850.22;;;22.17;73.17
67842;BME280;54642;59.126;37.876;2022-07-06T05:36:36;99811.59;;;22.00;72.99
67842;BME280;54642;59.126;37.876;2022-07-06T05:39:02;99811.78;;;21.97;73.12
67842;BME280;54642;59.126;37.876;2022-07-06T05:41:30;99858.41;;;22.12;72.97
67842;BME280;54642;59.126;37.876;2022-07-06T05:43:56;99853.13;;;22.12;73.38
67842;BME280;54642;59.126;37.876;2022-07-06T05:46:22;99854.22;;;22.08;73.01
67842;BME280;54642;59.126;37.876;2022-07-06T05:48:48;99824.69;;;22.01;72.92
67842;BME280;54642;59.126;37.876;2022-07-06T05:52:00;99798.91;;;22.06;72.72
67842;BME280;54642;59.126;37.876;2022-07-06T05:54:27;99837.56;;;22.39;71.71
67842;BME280;54642;59.126;37.876;2022-07-06T05:56:53;99839.06;;;22.43;71.89
67842;BME280;54642;59.126;37.876;2022-07-06T05:59:19;99805.50;;;22.45;71.41
67842;BME280;54642;59.126;37.876;2022-07-06T06:01:46;99779.59;;;22.52;71.23
67842;BME280;54642;59.126;37.876;2022-07-06T06:04:16;99840.31;;;23.13;70.96
67842;BME280;54642;59.126;37.876;2022-07-06T06:06:42;99833.13;;;23.29;70.67
67842;BME280;54642;59.126;37.876;2022-07-06T06:09:08;99797.72;;;23.17;70.27
67842;BME280;54642;59.126;37.876;2022-07-06T06:11:34;99837.47;;;23.45;70.29
67842;BME280;54642;59.126;37.876;2022-07-06T06:14:00;99833.50;;;23.52;69.71
67842;BME280;54642;59.126;37.876;2022-07-06T06:16:27;99828.75;;;23.57;70.08
67842;BME280;54642;59.126;37.876;2022-07-06T06:18:53;99834.59;;;23.76;69.03
67842;BME280;54642;59.126;37.876;2022-07-06T06:21:19;99839.78;;;23.78;68.89
67842;BME280;54642;59.126;37.876;2022-07-06T06:23:44;99832.16;;;23.73;68.31
67842;BME280;54642;59.126;37.876;2022-07-06T06:26:10;99828.88;;;23.84;68.38
67842;BME280;54642;59.126;37.876;2022-07-06T06:28:36;99835.47;;;23.91;68.26
67842;BME280;54642;59.126;37.876;2022-07-06T06:31:02;99835.22;;;24.09;68.23
67842;BME280;54642;59.126;37.876;2022-07-06T06:33:28;99835.94;;;24.25;68.17
67842;BME280;54642;59.126;37.876;2022-07-06T06:35:54;99835.22;;;24.36;67.94
67842;BME280;54642;59.126;37.876;2022-07-06T06:38:22;99834.50;;;24.47;68.06
67842;BME280;54642;59.126;37.876;2022-07-06T06:40:51;99837.41;;;24.57;67.09
67842;BME280;54642;59.126;37.876;2022-07-06T06:43:17;99844.00;;;24.64;67.27
67842;BME280;54642;59.126;37.876;2022-07-06T06:46:12;99834.88;;;24.55;66.90
67842;BME280;54642;59.126;37.876;2022-07-06T06:48:37;99799.22;;;24.46;66.94
67842;BME280;54642;59.126;37.876;2022-07-06T06:51:04;99842.34;;;24.76;66.88
67842;BME280;54642;59.126;37.876;2022-07-06T06:53:30;99825.38;;;24.78;66.71
67842;BME280;54642;59.126;37.876;2022-07-06T06:55:56;99837.06;;;24.88;65.77
67842;BME280;54642;59.126;37.876;2022-07-06T06:58:21;99798.84;;;24.65;65.98
67842;BME280;54642;59.126;37.876;2022-07-06T07:00:47;99810.53;;;24.76;66.01
67842;BME280;54642;59.126;37.876;2022-07-06T07:03:13;99831.00;;;24.86;65.37
67842;BME280;54642;59.126;37.876;2022-07-06T07:05:39;99789.00;;;24.67;64.99
67842;BME280;54642;59.126;37.876;2022-07-06T07:08:05;99802.06;;;24.70;65.19
67842;BME280;54642;59.126;37.876;2022-07-06T07:10:32;99815.59;;;24.79;65.17
67842;BME280;54642;59.126;37.876;2022-07-06T07:12:58;99848.41;;;25.03;64.42
67842;BME280;54642;59.126;37.876;2022-07-06T07:15:24;99849.66;;;25.10;63.42
67842;BME280;54642;59.126;37.876;2022-07-06T07:17:50;99753.34;;;24.46;63.51
67842;BME280;54642;59.126;37.876;2022-07-06T07:20:16;99850.00;;;25.19;62.43
67842;BME280;54642;59.126;37.876;2022-07-06T07:22:42;99854.91;;;25.25;61.81
67842;BME280;54642;59.126;37.876;2022-07-06T07:25:08;99808.63;;;25.03;61.55
67842;BME280;54642;59.126;37.876;2022-07-06T07:27:34;99816.47;;;25.18;61.60
67842;BME280;54642;59.126;37.876;2022-07-06T07:30:00;99838.56;;;25.31;61.39
67842;BME280;54642;59.126;37.876;2022-07-06T07:32:26;99857.56;;;25.51;61.42
67842;BME280;54642;59.126;37.876;2022-07-06T07:34:52;99823.94;;;25.38;61.16
67842;BME280;54642;59.126;37.876;2022-07-06T07:37:18;99866.31;;;25.64;60.95
67842;BME280;54642;59.126;37.876;2022-07-06T07:39:43;99821.56;;;25.46;60.47
67842;BME280;54642;59.126;37.876;2022-07-06T07:42:09;99841.88;;;25.72;60.02
67842;BME280;54642;59.126;37.876;2022-07-06T07:44:35;99852.91;;;25.78;60.03
67842;BME280;54642;59.126;37.876;2022-07-06T07:47:01;99859.31;;;25.76;59.82
67842;BME280;54642;59.126;37.876;2022-07-06T07:49:27;99819.44;;;25.52;59.16
67842;BME280;54642;59.126;37.876;2022-07-06T07:51:53;99812.84;;;25.57;59.53
67842;BME280;54642;59.126;37.876;2022-07-06T07:54:19;99845.69;;;25.80;58.78
67842;BME280;54642;59.126;37.876;2022-07-06T07:56:45;99850.69;;;25.85;58.92
67842;BME280;54642;59.126;37.876;2022-07-06T07:59:11;99860.31;;;25.86;58.40
67842;BME280;54642;59.126;37.876;2022-07-06T08:01:38;99851.09;;;25.79;58.62
67842;BME280;54642;59.126;37.876;2022-07-06T08:04:04;99849.63;;;25.75;58.28
67842;BME280;54642;59.126;37.876;2022-07-06T08:06:30;99828.88;;;25.56;58.13
67842;BME280;54642;59.126;37.876;2022-07-06T08:08:56;99858.22;;;25.78;58.58
67842;BME280;54642;59.126;37.876;2022-07-06T08:11:22;99841.00;;;25.84;58.95
67842;BME280;54642;59.126;37.876;2022-07-06T08:13:48;99861.47;;;26.08;58.31
67842;BME280;54642;59.126;37.876;2022-07-06T08:16:14;99852.44;;;26.10;57.75
67842;BME280;54642;59.126;37.876;2022-07-06T08:18:39;99829.97;;;25.90;56.96
67842;BME280;54642;59.126;37.876;2022-07-06T08:21:06;99783.13;;;25.65;56.76
67842;BME280;54642;59.126;37.876;2022-07-06T08:23:32;99840.78;;;25.87;56.92
67842;BME280;54642;59.126;37.876;2022-07-06T08:26:03;99797.53;;;25.61;56.88
67842;BME280;54642;59.126;37.876;2022-07-06T08:28:29;99780.47;;;25.52;56.70
67842;BME280;54642;59.126;37.876;2022-07-06T08:30:55;99835.31;;;25.77;55.97
67842;BME280;54642;59.126;37.876;2022-07-06T08:33:21;99821.47;;;25.85;56.16
67842;BME280;54642;59.126;37.876;2022-07-06T08:35:47;99813.31;;;25.88;55.84
67842;BME280;54642;59.126;37.876;2022-07-06T08:38:13;99848.75;;;26.00;55.60
67842;BME280;54642;59.126;37.876;2022-07-06T08:40:40;99854.53;;;26.18;55.71
67842;BME280;54642;59.126;37.876;2022-07-06T08:43:06;99818.63;;;25.88;54.97
67842;BME280;54642;59.126;37.876;2022-07-06T08:45:34;99855.81;;;26.12;55.38
67842;BME280;54642;59.126;37.876;2022-07-06T08:48:04;99857.19;;;26.18;54.10
67842;BME280;54642;59.126;37.876;2022-07-06T08:50:31;99857.19;;;26.42;53.89
67842;BME280;54642;59.126;37.876;2022-07-06T08:52:58;99824.63;;;26.27;53.70
67842;BME280;54642;59.126;37.876;2022-07-06T08:55:35;99854.56;;;26.53;52.85
67842;BME280;54642;59.126;37.876;2022-07-06T08:58:01;99873.69;;;26.58;52.25
67842;BME280;54642;59.126;37.876;2022-07-06T09:00:27;99861.03;;;26.62;52.37
67842;BME280;54642;59.126;37.876;2022-07-06T09:02:54;99852.38;;;26.71;52.42
67842;BME280;54642;59.126;37.876;2022-07-06T09:05:23;99821.13;;;26.51;52.18
67842;BME280;54642;59.126;37.876;2022-07-06T09:07:51;99869.78;;;26.51;52.32
67842;BME280;54642;59.126;37.876;2022-07-06T09:10:17;99871.81;;;26.48;52.53
67842;BME280;54642;59.126;37.876;2022-07-06T09:12:44;99866.41;;;26.49;52.85
67842;BME280;54642;59.126;37.876;2022-07-06T09:15:10;99861.44;;;26.56;52.24
67842;BME280;54642;59.126;37.876;2022-07-06T09:17:40;99864.47;;;26.51;51.27
67842;BME280;54642;59.126;37.876;2022-07-06T09:20:11;99860.97;;;26.51;51.22
67842;BME280;54642;59.126;37.876;2022-07-06T09:22:38;99870.03;;;26.59;50.75
67842;BME280;54642;59.126;37.876;2022-07-06T09:25:05;99810.19;;;26.42;49.64
67842;BME280;54642;59.126;37.876;2022-07-06T09:27:31;99859.53;;;26.82;48.87
67842;BME280;54642;59.126;37.876;2022-07-06T09:30:05;99853.97;;;26.85;48.83
67842;BME280;54642;59.126;37.876;2022-07-06T09:32:41;99838.34;;;26.45;48.69
67842;BME280;54642;59.126;37.876;2022-07-06T09:35:09;99850.44;;;26.25;48.79
67842;BME280;54642;59.126;37.876;2022-07-06T09:37:44;99849.03;;;26.32;48.98
67842;BME280;54642;59.126;37.876;2022-07-06T09:40:17;99848.75;;;26.48;48.67
67842;BME280;54642;59.126;37.876;2022-07-06T09:42:44;99831.78;;;26.38;48.23
67842;BME280;54642;59.126;37.876;2022-07-06T09:45:10;99850.16;;;26.41;48.63
67842;BME280;54642;59.126;37.876;2022-07-06T09:47:36;99832.41;;;26.41;48.72
67842;BME280;54642;59.126;37.876;2022-07-06T09:50:06;99826.38;;;26.39;47.97
67842;BME280;54642;59.126;37.876;2022-07-06T09:52:35;99748.41;;;25.92;48.91
67842;BME280;54642;59.126;37.876;2022-07-06T09:55:06;99794.44;;;26.28;48.91
67842;BME280;54642;59.126;37.876;2022-07-06T09:57:32;99828.00;;;26.53;48.14
67842;BME280;54642;59.126;37.876;2022-07-06T09:59:58;99832.63;;;26.62;48.52
67842;BME280;54642;59.126;37.876;2022-07-06T10:02:24;99827.50;;;26.59;48.68
67842;BME280;54642;59.126;37.876;2022-07-06T10:04:53;99844.72;;;26.67;48.56
67842;BME280;54642;59.126;37.876;2022-07-06T10:07:23;99806.97;;;26.50;48.53
67842;BME280;54642;59.126;37.876;2022-07-06T10:09:50;99795.50;;;26.50;48.54
67842;BME280;54642;59.126;37.876;2022-07-06T10:12:17;99827.44;;;26.61;48.04
67842;BME280;54642;59.126;37.876;2022-07-06T10:14:45;99814.47;;;26.56;48.57
67842;BME280;54642;59.126;37.876;2022-07-06T10:17:12;99819.28;;;26.51;49.07
67842;BME280;54642;59.126;37.876;2022-07-06T10:19:39;99812.09;;;26.29;49.19
67842;BME280;54642;59.126;37.876;2022-07-06T10:22:15;99838.16;;;26.24;49.66
67842;BME280;54642;59.126;37.876;2022-07-06T10:24:47;99837.34;;;26.11;49.37
67842;BME280;54642;59.126;37.876;2022-07-06T10:27:15;99839.88;;;26.12;49.91
67842;BME280;54642;59.126;37.876;2022-07-06T10:29:41;99817.09;;;25.97;49.15
67842;BME280;54642;59.126;37.876;2022-07-06T10:32:09;99806.06;;;26.03;49.08
67842;BME280;54642;59.126;37.876;2022-07-06T10:34:36;99799.31;;;26.10;48.12
67842;BME280;54642;59.126;37.876;2022-07-06T10:37:02;99830.97;;;26.49;48.42
67842;BME280;54642;59.126;37.876;2022-07-06T10:39:47;99827.03;;;26.54;48.09
67842;BME280;54642;59.126;37.876;2022-07-06T10:45:20;99820.97;;;26.76;47.95
67842;BME280;54642;59.126;37.876;2022-07-06T10:50:51;99783.75;;;26.65;48.71
67842;BME280;54642;59.126;37.876;2022-07-06T10:53:25;99820.25;;;26.86;48.60
67842;BME280;54642;59.126;37.876;2022-07-06T10:55:55;99820.16;;;26.87;48.90
67842;BME280;54642;59.126;37.876;2022-07-06T10:58:47;99819.75;;;26.80;48.37
67842;BME280;54642;59.126;37.876;2022-07-06T11:01:15;99811.91;;;26.79;47.92
67842;BME280;54642;59.126;37.876;2022-07-06T11:04:06;99799.09;;;26.84;48.07
67842;BME280;54642;59.126;37.876;2022-07-06T11:06:51;99815.78;;;26.86;47.16
67842;BME280;54642;59.126;37.876;2022-07-06T11:09:17;99824.97;;;26.93;47.55
67842;BME280;54642;59.126;37.876;2022-07-06T11:11:43;99813.13;;;26.86;47.52
67842;BME280;54642;59.126;37.876;2022-07-06T11:14:14;99797.53;;;26.93;47.12
67842;BME280;54642;59.126;37.876;2022-07-06T11:19:17;99815.31;;;27.04;47.48
67842;BME280;54642;59.126;37.876;2022-07-06T11:21:51;99816.03;;;26.83;47.63
67842;BME280;54642;59.126;37.876;2022-07-06T11:24:23;99777.22;;;26.45;47.85
67842;BME280;54642;59.126;37.876;2022-07-06T11:26:51;99770.06;;;26.34;47.96
67842;BME280;54642;59.126;37.876;2022-07-06T11:29:18;99781.38;;;26.49;48.22
67842;BME280;54642;59.126;37.876;2022-07-06T11:31:48;99784.28;;;26.57;48.13
67842;BME280;54642;59.126;37.876;2022-07-06T11:34:25;99807.81;;;26.86;48.07
67842;BME280;54642;59.126;37.876;2022-07-06T11:37:05;99797.31;;;26.96;47.86
67842;BME280;54642;59.126;37.876;2022-07-06T11:39:34;99808.34;;;27.03;47.42
67842;BME280;54642;59.126;37.876;2022-07-06T11:42:13;99814.50;;;27.03;47.26
67842;BME280;54642;59.126;37.876;2022-07-06T11:44:41;99810.72;;;27.06;47.17
67842;BME280;54642;59.126;37.876;2022-07-06T11:47:08;99802.28;;;27.12;47.29
67842;BME280;54642;59.126;37.876;2022-07-06T11:49:36;99794.81;;;27.17;46.29
67842;BME280;54642;59.126;37.876;2022-07-06T11:52:09;99787.03;;;27.25;46.04
67842;BME280;54642;59.126;37.876;2022-07-06T11:54:36;99790.22;;;27.30;45.88
67842;BME280;54642;59.126;37.876;2022-07-06T11:57:02;99800.88;;;27.30;45.66
67842;BME280;54642;59.126;37.876;2022-07-06T11:59:33;99804.25;;;27.32;45.78
67842;BME280;54642;59.126;37.876;2022-07-06T12:02:05;99728.19;;;26.85;46.08
67842;BME280;54642;59.126;37.876;2022-07-06T12:04:33;99784.63;;;27.11;46.35
67842;BME280;54642;59.126;37.876;2022-07-06T12:07:01;99790.19;;;27.19;46.03
67842;BME280;54642;59.126;37.876;2022-07-06T12:09:32;99786.22;;;27.25;45.72
67842;BME280;54642;59.126;37.876;2022-07-06T12:11:58;99786.84;;;27.28;45.68
67842;BME280;54642;59.126;37.876;2022-07-06T12:14:28;99794.94;;;27.27;45.83
67842;BME280;54642;59.126;37.876;2022-07-06T12:16:54;99774.97;;;27.21;45.58
67842;BME280;54642;59.126;37.876;2022-07-06T12:19:22;99785.28;;;27.37;45.92
67842;BME280;54642;59.126;37.876;2022-07-06T12:21:50;99718.75;;;26.92;45.97
67842;BME280;54642;59.126;37.876;2022-07-06T12:24:21;99791.06;;;27.31;45.89
67842;BME280;54642;59.126;37.876;2022-07-06T12:26:48;99786.59;;;27.31;46.08
67842;BME280;54642;59.126;37.876;2022-07-06T12:29:14;99761.44;;;27.35;44.61
67842;BME280;54642;59.126;37.876;2022-07-06T12:31:41;99782.72;;;27.58;44.97
67842;BME280;54642;59.126;37.876;2022-07-06T12:34:16;99773.53;;;27.51;44.30
67842;BME280;54642;59.126;37.876;2022-07-06T12:36:58;99779.94;;;27.48;44.76
67842;BME280;54642;59.126;37.876;2022-07-06T12:39:26;99784.91;;;27.30;45.00
67842;BME280;54642;59.126;37.876;2022-07-06T12:41:55;99722.50;;;26.89;45.28
67842;BME280;54642;59.126;37.876;2022-07-06T12:44:25;99762.63;;;27.20;45.16
67842;BME280;54642;59.126;37.876;2022-07-06T12:47:11;99776.91;;;27.30;45.16
67842;BME280;54642;59.126;37.876;2022-07-06T12:49:38;99764.19;;;27.11;45.19
67842;BME280;54642;59.126;37.876;2022-07-06T12:52:12;99768.28;;;27.04;45.22
67842;BME280;54642;59.126;37.876;2022-07-06T12:54:49;99736.16;;;26.85;45.24
67842;BME280;54642;59.126;37.876;2022-07-06T12:59:47;99773.28;;;26.97;45.29
67842;BME280;54642;59.126;37.876;2022-07-06T13:05:05;99744.50;;;27.03;45.38
67842;BME280;54642;59.126;37.876;2022-07-06T13:07:34;99771.09;;;27.25;45.83
67842;BME280;54642;59.126;37.876;2022-07-06T13:10:08;99697.25;;;26.84;46.01
67842;BME280;54642;59.126;37.876;2022-07-06T13:12:35;99770.09;;;27.15;46.33
67842;BME280;54642;59.126;37.876;2022-07-06T13:15:03;99745.22;;;27.05;46.54